sensor_id;sensor_type;location;lat;lon;timestamp;P1;durP1;ratioP1;P2;durP2;ratioP2
8040;SDS011;4063;48.140;10.250;2024-03-07T00:00:50;0.40;;;0.40;;
8040;SDS011;4063;48.140;10.250;2024-03-07T00:03:19;0.40;;;0.40;;
8040;SDS011;4063;48.140;10.250;2024-03-07T00:05:44;0.20;;;0.20;;
8040;SDS011;4063;48.140;10.250;2024-03-07T00:08:11;0.40;;;0.40;;
8040;SDS011;4063;48.140;10.250;2024-03-07T00:10:40;0.37;;;0.37;;
8040;SDS011;4063;48.140;10.250;2024-03-07T00:13:09;0.30;;;0.30;;
8040;SDS011;4063;48.140;10.250;2024-03-07T00:15:34;0.30;;;0.30;;
8040;SDS011;4063;48.140;10.250;2024-03-07T00:18:01;0.30;;;0.30;;
8040;SDS011;4063;48.140;10.250;2024-03-07T00:20:27;0.30;;;0.30;;
8040;SDS011;4063;48.140;10.250;2024-03-07T00:22:53;0.33;;;0.33;;
8040;SDS011;4063;48.140;10.250;2024-03-07T00:25:19;0.40;;;0.40;;
8040;SDS011;4063;48.140;10.250;2024-03-07T00:27:47;0.40;;;0.40;;
8040;SDS011;4063;48.140;10.250;2024-03-07T00:30:13;0.40;;;0.40;;
8040;SDS011;4063;48.140;10.250;2024-03-07T00:32:45;0.40;;;0.40;;
8040;SDS011;4063;48.140;10.250;2024-03-07T00:35:12;0.40;;;0.40;;
8040;SDS011;4063;48.140;10.250;2024-03-07T00:37:38;0.23;;;0.23;;
8040;SDS011;4063;48.140;10.250;2024-03-07T00:40:04;0.40;;;0.40;;
8040;SDS011;4063;48.140;10.250;2024-03-07T00:42:31;0.50;;;0.50;;
8040;SDS011;4063;48.140;10.250;2024-03-07T00:44:57;0.40;;;0.40;;
8040;SDS011;4063;48.140;10.250;2024-03-07T00:47:23;0.40;;;0.40;;
8040;SDS011;4063;48.140;10.250;2024-03-07T00:49:49;0.30;;;0.30;;
8040;SDS011;4063;48.140;10.250;2024-03-07T00:52:15;0.33;;;0.33;;
8040;SDS011;4063;48.140;10.250;2024-03-07T00:54:42;0.30;;;0.30;;
8040;SDS011;4063;48.140;10.250;2024-03-07T00:57:08;0.40;;;0.40;;
8040;SDS011;4063;48.140;10.250;2024-03-07T00:59:34;0.30;;;0.30;;
8040;SDS011;4063;48.140;10.250;2024-03-07T01:02:00;0.30;;;0.30;;
8040;SDS011;4063;48.140;10.250;2024-03-07T01:04:28;0.30;;;0.30;;
8040;SDS011;4063;48.140;10.250;2024-03-07T01:06:59;0.40;;;0.40;;
8040;SDS011;4063;48.140;10.250;2024-03-07T01:09:28;0.40;;;0.40;;
8040;SDS011;4063;48.140;10.250;2024-03-07T01:11:54;0.40;;;0.40;;
8040;SDS011;4063;48.140;10.250;2024-03-07T01:14:21;0.30;;;0.30;;
8040;SDS011;4063;48.140;10.250;2024-03-07T01:16:47;0.30;;;0.30;;
8040;SDS011;4063;48.140;10.250;2024-03-07T01:19:13;0.40;;;0.40;;
8040;SDS011;4063;48.140;10.250;2024-03-07T01:21:39;0.30;;;0.30;;
8040;SDS011;4063;48.140;10.250;2024-03-07T01:24:06;0.40;;;0.40;;
8040;SDS011;4063;48.140;10.250;2024-03-07T01:26:31;0.30;;;0.30;;
8040;SDS011;4063;48.140;10.250;2024-03-07T01:29:00;0.30;;;0.30;;
8040;SDS011;4063;48.140;10.250;2024-03-07T01:31:26;0.33;;;0.33;;
8040;SDS011;4063;48.140;10.250;2024-03-07T01:33:52;0.30;;;0.30;;
8040;SDS011;4063;48.140;10.250;2024-03-07T01:36:19;0.43;;;0.43;;
8040;SDS011;4063;48.140;10.250;2024-03-07T01:38:45;0.40;;;0.40;;
8040;SDS011;4063;48.140;10.250;2024-03-07T01:41:11;0.40;;;0.40;;
8040;SDS011;4063;48.140;10.250;2024-03-07T01:43:39;0.40;;;0.40;;
8040;SDS011;4063;48.140;10.250;2024-03-07T01:46:05;0.47;;;0.47;;
8040;SDS011;4063;48.140;10.250;2024-03-07T01:48:31;0.30;;;0.30;;
8040;SDS011;4063;48.140;10.250;2024-03-07T01:50:58;0.37;;;0.37;;
8040;SDS011;4063;48.140;10.250;2024-03-07T01:53:25;0.40;;;0.40;;
8040;SDS011;4063;48.140;10.250;2024-03-07T01:55:51;0.30;;;0.30;;
8040;SDS011;4063;48.140;10.250;2024-03-07T01:58:19;0.40;;;0.40;;
8040;SDS011;4063;48.140;10.250;2024-03-07T02:00:45;0.33;;;0.33;;
8040;SDS011;4063;48.140;10.250;2024-03-07T02:03:12;0.30;;;0.30;;
8040;SDS011;4063;48.140;10.250;2024-03-07T02:05:38;0.30;;;0.30;;
8040;SDS011;4063;48.140;10.250;2024-03-07T02:08:04;0.30;;;0.30;;
8040;SDS011;4063;48.140;10.250;2024-03-07T02:10:31;0.30;;;0.30;;
8040;SDS011;4063;48.140;10.250;2024-03-07T02:12:57;0.30;;;0.30;;
8040;SDS011;4063;48.140;10.250;2024-03-07T02:15:23;0.30;;;0.30;;
8040;SDS011;4063;48.140;10.250;2024-03-07T02:17:49;0.30;;;0.30;;
8040;SDS011;4063;48.140;10.250;2024-03-07T02:20:15;0.30;;;0.30;;
8040;SDS011;4063;48.140;10.250;2024-03-07T02:22:41;0.30;;;0.30;;
8040;SDS011;4063;48.140;10.250;2024-03-07T02:25:07;0.33;;;0.33;;
8040;SDS011;4063;48.140;10.250;2024-03-07T02:27:37;0.30;;;0.30;;
8040;SDS011;4063;48.140;10.250;2024-03-07T02:30:04;0.33;;;0.33;;
8040;SDS011;4063;48.140;10.250;2024-03-07T02:32:33;0.30;;;0.30;;
8040;SDS011;4063;48.140;10.250;2024-03-07T02:34:59;0.37;;;0.37;;
8040;SDS011;4063;48.140;10.250;2024-03-07T02:37:25;0.53;;;0.53;;
8040;SDS011;4063;48.140;10.250;2024-03-07T02:39:51;0.30;;;0.30;;
8040;SDS011;4063;48.140;10.250;2024-03-07T02:42:17;0.40;;;0.40;;
8040;SDS011;4063;48.140;10.250;2024-03-07T02:44:43;0.33;;;0.33;;
8040;SDS011;4063;48.140;10.250;2024-03-07T02:47:09;0.40;;;0.40;;
8040;SDS011;4063;48.140;10.250;2024-03-07T02:49:35;0.30;;;0.30;;
8040;SDS011;4063;48.140;10.250;2024-03-07T02:52:01;0.40;;;0.40;;
8040;SDS011;4063;48.140;10.250;2024-03-07T02:54:27;0.30;;;0.30;;
8040;SDS011;4063;48.140;10.250;2024-03-07T02:56:53;0.30;;;0.30;;
8040;SDS011;4063;48.140;10.250;2024-03-07T02:59:19;0.30;;;0.30;;
8040;SDS011;4063;48.140;10.250;2024-03-07T03:01:46;0.40;;;0.40;;
8040;SDS011;4063;48.140;10.250;2024-03-07T03:04:12;0.30;;;0.30;;
8040;SDS011;4063;48.140;10.250;2024-03-07T03:06:39;0.40;;;0.40;;
8040;SDS011;4063;48.140;10.250;2024-03-07T03:09:05;0.30;;;0.30;;
8040;SDS011;4063;48.140;10.250;2024-03-07T03:11:31;0.30;;;0.30;;
8040;SDS011;4063;48.140;10.250;2024-03-07T03:13:57;0.40;;;0.40;;
8040;SDS011;4063;48.140;10.250;2024-03-07T03:16:23;0.40;;;0.40;;
8040;SDS011;4063;48.140;10.250;2024-03-07T03:18:49;0.30;;;0.30;;
8040;SDS011;4063;48.140;10.250;2024-03-07T03:21:15;0.37;;;0.37;;
8040;SDS011;4063;48.140;10.250;2024-03-07T03:23:41;0.30;;;0.30;;
8040;SDS011;4063;48.140;10.250;2024-03-07T03:26:07;0.30;;;0.30;;
8040;SDS011;4063;48.140;10.250;2024-03-07T03:28:33;0.30;;;0.30;;
8040;SDS011;4063;48.140;10.250;2024-03-07T03:30:59;0.30;;;0.30;;
8040;SDS011;4063;48.140;10.250;2024-03-07T03:33:25;0.40;;;0.40;;
8040;SDS011;4063;48.140;10.250;2024-03-07T03:35:51;0.40;;;0.40;;
8040;SDS011;4063;48.140;10.250;2024-03-07T03:38:17;0.30;;;0.30;;
8040;SDS011;4063;48.140;10.250;2024-03-07T03:40:44;0.30;;;0.30;;
8040;SDS011;4063;48.140;10.250;2024-03-07T03:43:10;0.33;;;0.33;;
8040;SDS011;4063;48.140;10.250;2024-03-07T03:45:36;0.30;;;0.30;;
8040;SDS011;4063;48.140;10.250;2024-03-07T03:48:02;0.53;;;0.53;;
8040;SDS011;4063;48.140;10.250;2024-03-07T03:50:28;0.30;;;0.30;;
8040;SDS011;4063;48.140;10.250;2024-03-07T03:52:54;0.40;;;0.40;;
8040;SDS011;4063;48.140;10.250;2024-03-07T03:55:22;0.40;;;0.40;;
8040;SDS011;4063;48.140;10.250;2024-03-07T03:57:48;0.30;;;0.30;;
8040;SDS011;4063;48.140;10.250;2024-03-07T04:00:14;0.40;;;0.40;;
8040;SDS011;4063;48.140;10.250;2024-03-07T04:02:45;0.30;;;0.30;;
8040;SDS011;4063;48.140;10.250;2024-03-07T04:05:15;0.30;;;0.30;;
8040;SDS011;4063;48.140;10.250;2024-03-07T04:07:41;0.30;;;0.30;;
8040;SDS011;4063;48.140;10.250;2024-03-07T04:10:07;0.40;;;0.40;;
8040;SDS011;4063;48.140;10.250;2024-03-07T04:12:35;0.47;;;0.47;;
8040;SDS011;4063;48.140;10.250;2024-03-07T04:15:13;0.30;;;0.30;;
8040;SDS011;4063;48.140;10.250;2024-03-07T04:17:41;0.33;;;0.33;;
8040;SDS011;4063;48.140;10.250;2024-03-07T04:20:08;0.40;;;0.40;;
8040;SDS011;4063;48.140;10.250;2024-03-07T04:22:35;0.40;;;0.40;;
8040;SDS011;4063;48.140;10.250;2024-03-07T04:25:04;0.23;;;0.23;;
8040;SDS011;4063;48.140;10.250;2024-03-07T04:27:31;0.30;;;0.30;;
8040;SDS011;4063;48.140;10.250;2024-03-07T04:29:57;0.33;;;0.33;;
8040;SDS011;4063;48.140;10.250;2024-03-07T04:32:24;0.40;;;0.40;;
8040;SDS011;4063;48.140;10.250;2024-03-07T04:34:49;0.30;;;0.30;;
8040;SDS011;4063;48.140;10.250;2024-03-07T04:37:15;0.30;;;0.30;;
8040;SDS011;4063;48.140;10.250;2024-03-07T04:39:41;0.30;;;0.30;;
8040;SDS011;4063;48.140;10.250;2024-03-07T04:42:08;0.40;;;0.40;;
8040;SDS011;4063;48.140;10.250;2024-03-07T04:44:35;0.40;;;0.40;;
8040;SDS011;4063;48.140;10.250;2024-03-07T04:47:01;0.40;;;0.40;;
8040;SDS011;4063;48.140;10.250;2024-03-07T04:49:27;0.30;;;0.30;;
8040;SDS011;4063;48.140;10.250;2024-03-07T04:51:55;0.30;;;0.30;;
8040;SDS011;4063;48.140;10.250;2024-03-07T04:54:22;0.40;;;0.40;;
8040;SDS011;4063;48.140;10.250;2024-03-07T04:56:49;0.30;;;0.30;;
8040;SDS011;4063;48.140;10.250;2024-03-07T04:59:16;0.40;;;0.40;;
8040;SDS011;4063;48.140;10.250;2024-03-07T05:01:42;0.60;;;0.60;;
8040;SDS011;4063;48.140;10.250;2024-03-07T05:04:08;0.40;;;0.40;;
8040;SDS011;4063;48.140;10.250;2024-03-07T05:06:34;0.30;;;0.30;;
8040;SDS011;4063;48.140;10.250;2024-03-07T05:09:03;0.30;;;0.30;;
8040;SDS011;4063;48.140;10.250;2024-03-07T05:11:30;0.50;;;0.50;;
8040;SDS011;4063;48.140;10.250;2024-03-07T05:13:57;0.30;;;0.30;;
8040;SDS011;4063;48.140;10.250;2024-03-07T05:16:23;0.30;;;0.30;;
8040;SDS011;4063;48.140;10.250;2024-03-07T05:18:49;0.40;;;0.40;;
8040;SDS011;4063;48.140;10.250;2024-03-07T05:21:15;0.30;;;0.30;;
8040;SDS011;4063;48.140;10.250;2024-03-07T05:24:00;0.40;;;0.40;;
8040;SDS011;4063;48.140;10.250;2024-03-07T05:26:27;0.40;;;0.40;;
8040;SDS011;4063;48.140;10.250;2024-03-07T05:28:54;0.50;;;0.50;;
8040;SDS011;4063;48.140;10.250;2024-03-07T05:31:20;0.40;;;0.40;;
8040;SDS011;4063;48.140;10.250;2024-03-07T05:33:47;0.40;;;0.40;;
8040;SDS011;4063;48.140;10.250;2024-03-07T05:36:13;0.43;;;0.43;;
8040;SDS011;4063;48.140;10.250;2024-03-07T05:38:40;0.67;;;0.67;;
8040;SDS011;4063;48.140;10.250;2024-03-07T05:41:08;0.30;;;0.30;;
8040;SDS011;4063;48.140;10.250;2024-03-07T05:43:35;0.40;;;0.40;;
8040;SDS011;4063;48.140;10.250;2024-03-07T05:46:01;0.50;;;0.50;;
8040;SDS011;4063;48.140;10.250;2024-03-07T05:48:27;0.40;;;0.40;;
8040;SDS011;4063;48.140;10.250;2024-03-07T05:50:53;0.40;;;0.40;;
8040;SDS011;4063;48.140;10.250;2024-03-07T05:53:19;0.30;;;0.30;;
8040;SDS011;4063;48.140;10.250;2024-03-07T05:55:45;0.33;;;0.33;;
8040;SDS011;4063;48.140;10.250;2024-03-07T05:58:11;0.30;;;0.30;;
8040;SDS011;4063;48.140;10.250;2024-03-07T06:00:37;0.50;;;0.50;;
8040;SDS011;4063;48.140;10.250;2024-03-07T06:03:05;0.40;;;0.40;;
8040;SDS011;4063;48.140;10.250;2024-03-07T06:05:33;0.40;;;0.40;;
8040;SDS011;4063;48.140;10.250;2024-03-07T06:07:59;1.00;;;1.00;;
8040;SDS011;4063;48.140;10.250;2024-03-07T06:10:25;0.50;;;0.50;;
8040;SDS011;4063;48.140;10.250;2024-03-07T06:12:52;0.40;;;0.40;;
8040;SDS011;4063;48.140;10.250;2024-03-07T06:15:18;0.40;;;0.40;;
8040;SDS011;4063;48.140;10.250;2024-03-07T06:17:45;0.40;;;0.40;;
8040;SDS011;4063;48.140;10.250;2024-03-07T06:20:14;0.50;;;0.50;;
8040;SDS011;4063;48.140;10.250;2024-03-07T06:22:50;0.40;;;0.40;;
8040;SDS011;4063;48.140;10.250;2024-03-07T06:25:17;0.30;;;0.30;;
8040;SDS011;4063;48.140;10.250;2024-03-07T06:27:59;0.30;;;0.30;;
8040;SDS011;4063;48.140;10.250;2024-03-07T06:30:33;0.40;;;0.40;;
8040;SDS011;4063;48.140;10.250;2024-03-07T06:32:59;0.40;;;0.40;;
8040;SDS011;4063;48.140;10.250;2024-03-07T06:35:25;2.80;;;2.53;;
8040;SDS011;4063;48.140;10.250;2024-03-07T06:37:51;0.40;;;0.40;;
8040;SDS011;4063;48.140;10.250;2024-03-07T06:40:17;0.30;;;0.30;;
8040;SDS011;4063;48.140;10.250;2024-03-07T06:42:47;0.30;;;0.30;;
8040;SDS011;4063;48.140;10.250;2024-03-07T06:45:13;0.30;;;0.30;;
8040;SDS011;4063;48.140;10.250;2024-03-07T06:47:39;0.40;;;0.40;;
8040;SDS011;4063;48.140;10.250;2024-03-07T06:50:06;0.40;;;0.40;;
8040;SDS011;4063;48.140;10.250;2024-03-07T06:52:34;0.50;;;0.50;;
8040;SDS011;4063;48.140;10.250;2024-03-07T06:55:00;0.30;;;0.30;;
8040;SDS011;4063;48.140;10.250;2024-03-07T06:57:27;0.23;;;0.23;;
8040;SDS011;4063;48.140;10.250;2024-03-07T06:59:53;0.70;;;0.70;;
8040;SDS011;4063;48.140;10.250;2024-03-07T07:02:20;0.30;;;0.30;;
8040;SDS011;4063;48.140;10.250;2024-03-07T07:04:46;0.30;;;0.30;;
8040;SDS011;4063;48.140;10.250;2024-03-07T07:07:13;0.30;;;0.30;;
8040;SDS011;4063;48.140;10.250;2024-03-07T07:09:39;0.30;;;0.30;;
8040;SDS011;4063;48.140;10.250;2024-03-07T07:12:05;0.47;;;0.47;;
8040;SDS011;4063;48.140;10.250;2024-03-07T07:14:32;0.40;;;0.40;;
8040;SDS011;4063;48.140;10.250;2024-03-07T07:17:01;0.37;;;0.37;;
8040;SDS011;4063;48.140;10.250;2024-03-07T07:19:26;0.40;;;0.40;;
8040;SDS011;4063;48.140;10.250;2024-03-07T07:21:53;0.30;;;0.30;;
8040;SDS011;4063;48.140;10.250;2024-03-07T07:24:22;0.40;;;0.40;;
8040;SDS011;4063;48.140;10.250;2024-03-07T07:26:50;0.30;;;0.30;;
8040;SDS011;4063;48.140;10.250;2024-03-07T07:29:16;0.30;;;0.30;;
8040;SDS011;4063;48.140;10.250;2024-03-07T07:31:42;0.40;;;0.40;;
8040;SDS011;4063;48.140;10.250;2024-03-07T07:34:09;0.40;;;0.40;;
8040;SDS011;4063;48.140;10.250;2024-03-07T07:36:36;0.93;;;0.93;;
8040;SDS011;4063;48.140;10.250;2024-03-07T07:39:02;0.33;;;0.33;;
8040;SDS011;4063;48.140;10.250;2024-03-07T07:41:28;0.30;;;0.30;;
8040;SDS011;4063;48.140;10.250;2024-03-07T07:43:56;0.60;;;0.60;;
8040;SDS011;4063;48.140;10.250;2024-03-07T07:46:22;0.83;;;0.83;;
8040;SDS011;4063;48.140;10.250;2024-03-07T07:48:48;0.30;;;0.30;;
8040;SDS011;4063;48.140;10.250;2024-03-07T07:51:14;2.53;;;2.43;;
8040;SDS011;4063;48.140;10.250;2024-03-07T07:53:40;0.30;;;0.30;;
8040;SDS011;4063;48.140;10.250;2024-03-07T07:56:07;0.30;;;0.30;;
8040;SDS011;4063;48.140;10.250;2024-03-07T07:58:33;0.40;;;0.40;;
8040;SDS011;4063;48.140;10.250;2024-03-07T08:00:59;0.43;;;0.43;;
8040;SDS011;4063;48.140;10.250;2024-03-07T08:03:25;0.40;;;0.40;;
8040;SDS011;4063;48.140;10.250;2024-03-07T08:05:51;0.30;;;0.30;;
8040;SDS011;4063;48.140;10.250;2024-03-07T08:08:22;0.30;;;0.30;;
8040;SDS011;4063;48.140;10.250;2024-03-07T08:10:48;0.30;;;0.30;;
8040;SDS011;4063;48.140;10.250;2024-03-07T08:13:14;0.30;;;0.30;;
8040;SDS011;4063;48.140;10.250;2024-03-07T08:15:40;0.30;;;0.30;;
8040;SDS011;4063;48.140;10.250;2024-03-07T08:18:06;0.87;;;0.87;;
8040;SDS011;4063;48.140;10.250;2024-03-07T08:20:36;0.40;;;0.40;;
8040;SDS011;4063;48.140;10.250;2024-03-07T08:23:02;0.20;;;0.20;;
8040;SDS011;4063;48.140;10.250;2024-03-07T08:25:28;0.20;;;0.20;;
8040;SDS011;4063;48.140;10.250;2024-03-07T08:27:55;0.20;;;0.20;;
8040;SDS011;4063;48.140;10.250;2024-03-07T08:30:23;0.30;;;0.30;;
8040;SDS011;4063;48.140;10.250;2024-03-07T08:32:52;0.27;;;0.27;;
8040;SDS011;4063;48.140;10.250;2024-03-07T08:35:19;0.30;;;0.30;;
8040;SDS011;4063;48.140;10.250;2024-03-07T08:37:46;0.20;;;0.20;;
8040;SDS011;4063;48.140;10.250;2024-03-07T08:40:17;0.40;;;0.40;;
8040;SDS011;4063;48.140;10.250;2024-03-07T08:42:47;0.40;;;0.40;;
8040;SDS011;4063;48.140;10.250;2024-03-07T08:45:13;0.90;;;0.90;;
8040;SDS011;4063;48.140;10.250;2024-03-07T08:47:43;0.40;;;0.40;;
8040;SDS011;4063;48.140;10.250;2024-03-07T08:50:09;0.37;;;0.37;;
8040;SDS011;4063;48.140;10.250;2024-03-07T08:52:36;0.80;;;0.80;;
8040;SDS011;4063;48.140;10.250;2024-03-07T08:55:03;1.33;;;1.33;;
8040;SDS011;4063;48.140;10.250;2024-03-07T08:57:29;0.30;;;0.30;;
8040;SDS011;4063;48.140;10.250;2024-03-07T08:59:56;0.30;;;0.30;;
8040;SDS011;4063;48.140;10.250;2024-03-07T09:02:22;0.30;;;0.30;;
8040;SDS011;4063;48.140;10.250;2024-03-07T09:04:48;0.37;;;0.37;;
8040;SDS011;4063;48.140;10.250;2024-03-07T09:07:14;0.33;;;0.33;;
8040;SDS011;4063;48.140;10.250;2024-03-07T09:09:41;0.43;;;0.43;;
8040;SDS011;4063;48.140;10.250;2024-03-07T09:12:10;0.30;;;0.30;;
8040;SDS011;4063;48.140;10.250;2024-03-07T09:14:36;0.53;;;0.53;;
8040;SDS011;4063;48.140;10.250;2024-03-07T09:17:03;0.40;;;0.40;;
8040;SDS011;4063;48.140;10.250;2024-03-07T09:19:29;0.50;;;0.50;;
8040;SDS011;4063;48.140;10.250;2024-03-07T09:21:55;0.30;;;0.30;;
8040;SDS011;4063;48.140;10.250;2024-03-07T09:24:21;0.70;;;0.70;;
8040;SDS011;4063;48.140;10.250;2024-03-07T09:26:50;1.23;;;1.23;;
8040;SDS011;4063;48.140;10.250;2024-03-07T09:29:17;0.73;;;0.73;;
8040;SDS011;4063;48.140;10.250;2024-03-07T09:31:44;0.30;;;0.30;;
8040;SDS011;4063;48.140;10.250;2024-03-07T09:34:10;0.30;;;0.30;;
8040;SDS011;4063;48.140;10.250;2024-03-07T09:36:37;0.40;;;0.40;;
8040;SDS011;4063;48.140;10.250;2024-03-07T09:39:03;0.47;;;0.47;;
8040;SDS011;4063;48.140;10.250;2024-03-07T09:41:30;0.40;;;0.40;;
8040;SDS011;4063;48.140;10.250;2024-03-07T09:43:57;0.30;;;0.30;;
8040;SDS011;4063;48.140;10.250;2024-03-07T09:46:23;1.13;;;1.13;;
8040;SDS011;4063;48.140;10.250;2024-03-07T09:48:50;1.03;;;0.97;;
8040;SDS011;4063;48.140;10.250;2024-03-07T09:51:18;1.90;;;1.80;;
8040;SDS011;4063;48.140;10.250;2024-03-07T09:53:45;0.53;;;0.53;;
8040;SDS011;4063;48.140;10.250;2024-03-07T09:56:12;0.30;;;0.30;;
8040;SDS011;4063;48.140;10.250;2024-03-07T09:58:40;0.30;;;0.30;;
8040;SDS011;4063;48.140;10.250;2024-03-07T10:01:07;0.30;;;0.30;;
8040;SDS011;4063;48.140;10.250;2024-03-07T10:03:35;0.30;;;0.30;;
8040;SDS011;4063;48.140;10.250;2024-03-07T10:06:01;0.27;;;0.27;;
8040;SDS011;4063;48.140;10.250;2024-03-07T10:08:28;0.30;;;0.30;;
8040;SDS011;4063;48.140;10.250;2024-03-07T10:10:55;0.37;;;0.37;;
8040;SDS011;4063;48.140;10.250;2024-03-07T10:13:22;0.47;;;0.47;;
8040;SDS011;4063;48.140;10.250;2024-03-07T10:15:48;0.77;;;0.77;;
8040;SDS011;4063;48.140;10.250;2024-03-07T10:18:14;0.30;;;0.30;;
8040;SDS011;4063;48.140;10.250;2024-03-07T10:20:43;0.50;;;0.50;;
8040;SDS011;4063;48.140;10.250;2024-03-07T10:23:09;0.30;;;0.30;;
8040;SDS011;4063;48.140;10.250;2024-03-07T10:25:35;0.23;;;0.23;;
8040;SDS011;4063;48.140;10.250;2024-03-07T10:28:03;0.30;;;0.30;;
8040;SDS011;4063;48.140;10.250;2024-03-07T10:30:31;0.30;;;0.30;;
8040;SDS011;4063;48.140;10.250;2024-03-07T10:33:04;0.20;;;0.20;;
8040;SDS011;4063;48.140;10.250;2024-03-07T10:35:32;0.30;;;0.30;;
8040;SDS011;4063;48.140;10.250;2024-03-07T10:37:58;0.20;;;0.20;;
8040;SDS011;4063;48.140;10.250;2024-03-07T10:40:31;0.27;;;0.27;;
8040;SDS011;4063;48.140;10.250;2024-03-07T10:42:57;0.30;;;0.30;;
8040;SDS011;4063;48.140;10.250;2024-03-07T10:45:28;0.30;;;0.30;;
8040;SDS011;4063;48.140;10.250;2024-03-07T10:47:54;0.90;;;0.90;;
8040;SDS011;4063;48.140;10.250;2024-03-07T10:53:10;0.30;;;0.30;;
8040;SDS011;4063;48.140;10.250;2024-03-07T11:00:34;0.77;;;0.77;;
8040;SDS011;4063;48.140;10.250;2024-03-07T11:03:08;0.30;;;0.30;;
8040;SDS011;4063;48.140;10.250;2024-03-07T11:05:34;0.70;;;0.70;;
8040;SDS011;4063;48.140;10.250;2024-03-07T11:08:01;0.93;;;0.93;;
8040;SDS011;4063;48.140;10.250;2024-03-07T11:10:32;0.30;;;0.30;;
8040;SDS011;4063;48.140;10.250;2024-03-07T11:12:58;0.20;;;0.20;;
8040;SDS011;4063;48.140;10.250;2024-03-07T11:15:25;0.20;;;0.20;;
8040;SDS011;4063;48.140;10.250;2024-03-07T11:17:52;0.30;;;0.30;;
8040;SDS011;4063;48.140;10.250;2024-03-07T11:20:19;0.20;;;0.20;;
8040;SDS011;4063;48.140;10.250;2024-03-07T11:22:46;0.23;;;0.23;;
8040;SDS011;4063;48.140;10.250;2024-03-07T11:25:12;0.43;;;0.43;;
8040;SDS011;4063;48.140;10.250;2024-03-07T11:27:38;0.33;;;0.33;;
8040;SDS011;4063;48.140;10.250;2024-03-07T11:30:05;0.23;;;0.23;;
8040;SDS011;4063;48.140;10.250;2024-03-07T11:32:36;0.30;;;0.30;;
8040;SDS011;4063;48.140;10.250;2024-03-07T11:35:12;0.30;;;0.30;;
8040;SDS011;4063;48.140;10.250;2024-03-07T11:37:47;0.33;;;0.33;;
8040;SDS011;4063;48.140;10.250;2024-03-07T11:40:42;0.30;;;0.30;;
8040;SDS011;4063;48.140;10.250;2024-03-07T11:43:01;0.20;;;0.20;;
8040;SDS011;4063;48.140;10.250;2024-03-07T11:45:30;0.33;;;0.33;;
8040;SDS011;4063;48.140;10.250;2024-03-07T11:48:03;0.23;;;0.23;;
8040;SDS011;4063;48.140;10.250;2024-03-07T11:50:34;0.30;;;0.30;;
8040;SDS011;4063;48.140;10.250;2024-03-07T11:53:01;0.67;;;0.67;;
8040;SDS011;4063;48.140;10.250;2024-03-07T11:55:27;0.60;;;0.60;;
8040;SDS011;4063;48.140;10.250;2024-03-07T12:00:45;0.20;;;0.20;;
8040;SDS011;4063;48.140;10.250;2024-03-07T12:03:15;0.70;;;0.70;;
8040;SDS011;4063;48.140;10.250;2024-03-07T12:05:46;0.20;;;0.20;;
8040;SDS011;4063;48.140;10.250;2024-03-07T12:08:12;0.20;;;0.20;;
8040;SDS011;4063;48.140;10.250;2024-03-07T12:10:39;0.60;;;0.60;;
8040;SDS011;4063;48.140;10.250;2024-03-07T12:13:08;0.30;;;0.30;;
8040;SDS011;4063;48.140;10.250;2024-03-07T12:15:36;0.20;;;0.20;;
8040;SDS011;4063;48.140;10.250;2024-03-07T12:18:02;0.30;;;0.30;;
8040;SDS011;4063;48.140;10.250;2024-03-07T12:20:29;0.30;;;0.30;;
8040;SDS011;4063;48.140;10.250;2024-03-07T12:23:01;0.30;;;0.30;;
8040;SDS011;4063;48.140;10.250;2024-03-07T12:25:28;0.40;;;0.40;;
8040;SDS011;4063;48.140;10.250;2024-03-07T12:28:01;0.30;;;0.30;;
8040;SDS011;4063;48.140;10.250;2024-03-07T12:30:37;0.30;;;0.30;;
8040;SDS011;4063;48.140;10.250;2024-03-07T12:33:12;0.30;;;0.30;;
8040;SDS011;4063;48.140;10.250;2024-03-07T12:35:39;0.30;;;0.30;;
8040;SDS011;4063;48.140;10.250;2024-03-07T12:38:07;0.30;;;0.30;;
8040;SDS011;4063;48.140;10.250;2024-03-07T12:40:35;2.10;;;2.00;;
8040;SDS011;4063;48.140;10.250;2024-03-07T12:43:02;0.80;;;0.80;;
8040;SDS011;4063;48.140;10.250;2024-03-07T12:45:42;0.30;;;0.30;;
8040;SDS011;4063;48.140;10.250;2024-03-07T12:48:08;0.30;;;0.30;;
8040;SDS011;4063;48.140;10.250;2024-03-07T12:50:39;0.30;;;0.30;;
8040;SDS011;4063;48.140;10.250;2024-03-07T12:53:05;0.60;;;0.60;;
8040;SDS011;4063;48.140;10.250;2024-03-07T12:55:36;0.40;;;0.40;;
8040;SDS011;4063;48.140;10.250;2024-03-07T12:58:06;0.40;;;0.40;;
8040;SDS011;4063;48.140;10.250;2024-03-07T13:00:34;0.20;;;0.20;;
8040;SDS011;4063;48.140;10.250;2024-03-07T13:03:00;0.30;;;0.30;;
8040;SDS011;4063;48.140;10.250;2024-03-07T13:05:26;0.30;;;0.30;;
8040;SDS011;4063;48.140;10.250;2024-03-07T13:07:52;0.30;;;0.30;;
8040;SDS011;4063;48.140;10.250;2024-03-07T13:10:18;0.20;;;0.20;;
8040;SDS011;4063;48.140;10.250;2024-03-07T13:12:45;0.30;;;0.30;;
8040;SDS011;4063;48.140;10.250;2024-03-07T13:15:13;0.27;;;0.27;;
8040;SDS011;4063;48.140;10.250;2024-03-07T13:17:39;0.30;;;0.30;;
8040;SDS011;4063;48.140;10.250;2024-03-07T13:20:08;0.30;;;0.30;;
8040;SDS011;4063;48.140;10.250;2024-03-07T13:22:45;0.20;;;0.20;;
8040;SDS011;4063;48.140;10.250;2024-03-07T13:25:20;0.43;;;0.43;;
8040;SDS011;4063;48.140;10.250;2024-03-07T13:27:52;0.60;;;0.60;;
8040;SDS011;4063;48.140;10.250;2024-03-07T13:30:20;0.30;;;0.30;;
8040;SDS011;4063;48.140;10.250;2024-03-07T13:32:52;48.93;;;35.23;;
8040;SDS011;4063;48.140;10.250;2024-03-07T13:35:19;54.83;;;37.73;;
8040;SDS011;4063;48.140;10.250;2024-03-07T13:37:46;53.33;;;37.73;;
8040;SDS011;4063;48.140;10.250;2024-03-07T13:40:12;45.43;;;34.67;;
8040;SDS011;4063;48.140;10.250;2024-03-07T13:42:54;48.93;;;35.93;;
8040;SDS011;4063;48.140;10.250;2024-03-07T13:45:25;47.10;;;33.93;;
8040;SDS011;4063;48.140;10.250;2024-03-07T13:47:56;48.57;;;34.97;;
8040;SDS011;4063;48.140;10.250;2024-03-07T13:50:23;46.40;;;34.70;;
8040;SDS011;4063;48.140;10.250;2024-03-07T13:52:52;49.83;;;35.13;;
8040;SDS011;4063;48.140;10.250;2024-03-07T13:58:06;45.57;;;34.93;;
8040;SDS011;4063;48.140;10.250;2024-03-07T14:00:41;47.57;;;34.93;;
8040;SDS011;4063;48.140;10.250;2024-03-07T14:03:55;41.70;;;30.57;;
8040;SDS011;4063;48.140;10.250;2024-03-07T14:06:00;44.80;;;33.67;;
8040;SDS011;4063;48.140;10.250;2024-03-07T14:13:39;40.37;;;33.17;;
8040;SDS011;4063;48.140;10.250;2024-03-07T14:29:27;41.13;;;31.10;;
8040;SDS011;4063;48.140;10.250;2024-03-07T14:32:00;43.67;;;32.10;;
8040;SDS011;4063;48.140;10.250;2024-03-07T14:37:34;43.13;;;34.30;;
8040;SDS011;4063;48.140;10.250;2024-03-07T14:39:51;39.57;;;29.77;;
8040;SDS011;4063;48.140;10.250;2024-03-07T14:42:18;35.38;;;27.90;;
8040;SDS011;4063;48.140;10.250;2024-03-07T14:44:45;35.08;;;28.10;;
8040;SDS011;4063;48.140;10.250;2024-03-07T14:47:13;29.20;;;25.92;;
8040;SDS011;4063;48.140;10.250;2024-03-07T14:49:39;32.95;;;24.98;;
8040;SDS011;4063;48.140;10.250;2024-03-07T14:52:06;32.00;;;25.67;;
8040;SDS011;4063;48.140;10.250;2024-03-07T14:54:36;32.47;;;26.03;;
8040;SDS011;4063;48.140;10.250;2024-03-07T14:57:03;34.47;;;27.33;;
8040;SDS011;4063;48.140;10.250;2024-03-07T14:59:29;35.03;;;28.20;;
8040;SDS011;4063;48.140;10.250;2024-03-07T15:01:55;33.67;;;25.53;;
8040;SDS011;4063;48.140;10.250;2024-03-07T15:04:23;33.07;;;25.67;;
8040;SDS011;4063;48.140;10.250;2024-03-07T15:06:49;28.27;;;23.03;;
8040;SDS011;4063;48.140;10.250;2024-03-07T15:09:17;26.97;;;22.40;;
8040;SDS011;4063;48.140;10.250;2024-03-07T15:11:44;28.87;;;23.57;;
8040;SDS011;4063;48.140;10.250;2024-03-07T15:14:10;31.20;;;23.43;;
8040;SDS011;4063;48.140;10.250;2024-03-07T15:16:38;30.83;;;23.17;;
8040;SDS011;4063;48.140;10.250;2024-03-07T15:19:05;29.67;;;22.37;;
8040;SDS011;4063;48.140;10.250;2024-03-07T15:21:32;32.70;;;23.43;;
8040;SDS011;4063;48.140;10.250;2024-03-07T15:23:58;30.53;;;21.83;;
8040;SDS011;4063;48.140;10.250;2024-03-07T15:26:25;27.47;;;22.20;;
8040;SDS011;4063;48.140;10.250;2024-03-07T15:28:51;33.77;;;22.57;;
8040;SDS011;4063;48.140;10.250;2024-03-07T15:31:17;34.40;;;22.73;;
8040;SDS011;4063;48.140;10.250;2024-03-07T15:33:47;29.70;;;22.63;;